F69 weather

Air Park Dallas Airport
Dallas, Texas, United States

Public forecast

Using degrees Fahrenheit for public forecast. Weather courtesy of forecast.io.

METAR (pilot weather report)

Closest report is Addison Airport, 3.3 nm (6.1 km) S. Retrieved 2017/10/22 09:35 UTC (0 seconds ago):

KADS 220935Z AUTO 07011G18KT 10SM -VCTSRA SCT008 OVC095 16/15 A2993 RMK AO2 LTG DSNT NE THRU S T01640152

TAF (pilot weather forecast)

Closest forecast is Dallas Love Field, 10.6 nm (19.7 km) S. Retrieved 2017/10/22 06:22 UTC (3 hours ago):

TAF KDAL 220520Z 2206/2306 32015G25KT 5SM -SHRA SCT015 BKN040 TEMPO 2206/2208 3SM +TSRA BKN015CB FM220900 34022KT P6SM SCT025 BKN100 FM221400 34022KT P6SM SCT150 FM221900 35020KT P6SM FEW250 FM230000 35012KT P6SM SKC